createdAt,value
2023-11-18T00:00:55.336Z,1.80
2023-11-18T00:05:56.872Z,1.63
2023-11-18T00:10:58.393Z,1.47
2023-11-18T00:15:59.859Z,1.35
2023-11-18T00:21:01.308Z,1.20
2023-11-18T00:26:02.940Z,1.12
2023-11-18T00:31:04.841Z,1.15
2023-11-18T00:36:07.359Z,1.14
2023-11-18T00:41:09.198Z,1.19
2023-11-18T00:46:10.778Z,1.25
2023-11-18T00:51:12.273Z,1.31
2023-11-18T00:56:16.640Z,1.34
2023-11-18T01:01:18.174Z,1.34
2023-11-18T01:06:19.792Z,1.35
2023-11-18T01:11:21.645Z,1.31
2023-11-18T01:16:23.165Z,1.17
2023-11-18T01:21:24.700Z,1.16
2023-11-18T01:26:26.173Z,1.15
2023-11-18T01:31:32.189Z,1.04
2023-11-18T01:36:35.886Z,1.09
2023-11-18T01:41:37.370Z,0.97
2023-11-18T01:46:38.899Z,0.84
2023-11-18T01:51:43.743Z,0.80
2023-11-18T01:56:50.204Z,0.81
2023-11-18T02:01:53.772Z,0.82
2023-11-18T02:06:55.527Z,0.81
2023-11-18T02:12:16.916Z,0.75
2023-11-18T02:17:22.984Z,0.72
2023-11-18T02:22:26.608Z,0.70
2023-11-18T02:27:28.089Z,0.65
2023-11-18T02:32:40.857Z,0.63
2023-11-18T02:37:45.811Z,0.60
2023-11-18T02:42:49.429Z,0.62
2023-11-18T02:47:51.074Z,0.65
2023-11-18T02:52:52.597Z,0.63
2023-11-18T02:57:54.120Z,0.63
2023-11-18T03:02:55.842Z,0.65
2023-11-18T03:07:57.388Z,0.62
2023-11-18T03:12:58.882Z,0.70
2023-11-18T03:18:00.443Z,0.64
2023-11-18T03:23:02.077Z,0.58
2023-11-18T03:28:03.672Z,0.59
2023-11-18T03:33:05.228Z,0.48
2023-11-18T03:38:06.767Z,0.46
2023-11-18T03:43:08.417Z,0.33
2023-11-18T03:48:10.019Z,0.15
2023-11-18T03:53:12.288Z,0.00
2023-11-18T03:58:13.821Z,-0.16
2023-11-18T04:03:15.315Z,-0.30
2023-11-18T04:08:16.818Z,-0.49
2023-11-18T04:13:18.261Z,-0.61
2023-11-18T04:18:19.738Z,-0.74
2023-11-18T04:23:21.198Z,-0.87
2023-11-18T04:28:22.662Z,-1.07
2023-11-18T04:33:24.124Z,-1.17
2023-11-18T04:38:27.334Z,-1.26
2023-11-18T04:43:35.101Z,-1.22
2023-11-18T04:48:44.243Z,-1.10
2023-11-18T04:53:45.877Z,-1.14
2023-11-18T04:58:47.442Z,-1.27
2023-11-18T05:03:49.029Z,-1.33
2023-11-18T05:08:50.652Z,-1.33
2023-11-18T05:13:52.163Z,-1.34
2023-11-18T05:18:53.618Z,-1.31
2023-11-18T05:23:55.126Z,-1.31
2023-11-18T05:28:56.611Z,-1.31
2023-11-18T05:33:58.103Z,-1.31
2023-11-18T05:38:59.543Z,-1.29
2023-11-18T05:44:01.064Z,-1.24
2023-11-18T05:49:04.117Z,-1.28
2023-11-18T05:54:05.605Z,-1.25
2023-11-18T05:59:07.093Z,-1.24
2023-11-18T06:04:08.653Z,-1.19
2023-11-18T06:09:10.185Z,-1.21
2023-11-18T06:14:12.103Z,-1.25
2023-11-18T06:19:13.568Z,-1.31
2023-11-18T06:24:15.016Z,-1.33
2023-11-18T06:29:16.651Z,-1.37
2023-11-18T06:34:18.169Z,-1.34
2023-11-18T06:39:19.804Z,-1.38
2023-11-18T06:44:21.275Z,-1.38
2023-11-18T06:49:22.745Z,-1.40
2023-11-18T06:54:24.196Z,-1.35
2023-11-18T06:59:25.636Z,-1.35
2023-11-18T07:04:27.096Z,-1.29
2023-11-18T07:09:28.524Z,-1.18
2023-11-18T07:14:30.308Z,-1.22
2023-11-18T07:19:31.760Z,-1.20
2023-11-18T07:24:33.814Z,-1.15
2023-11-18T07:29:35.248Z,-1.12
2023-11-18T07:34:36.750Z,-1.04
2023-11-18T07:39:38.213Z,-0.88
2023-11-18T07:44:39.824Z,-0.77
2023-11-18T07:49:41.334Z,-0.70
2023-11-18T07:54:42.813Z,-0.62
2023-11-18T07:59:44.253Z,-0.45
2023-11-18T08:04:45.809Z,-0.25
2023-11-18T08:09:47.319Z,-0.13
2023-11-18T08:14:48.797Z,0.02
2023-11-18T08:19:50.324Z,0.17
2023-11-18T08:24:51.859Z,0.24
2023-11-18T08:29:53.294Z,0.22
2023-11-18T08:34:54.784Z,0.28
2023-11-18T08:39:56.267Z,0.23
2023-11-18T08:44:57.694Z,0.20
2023-11-18T08:49:59.144Z,0.39
2023-11-18T08:55:00.579Z,0.63
2023-11-18T09:00:02.059Z,0.88
2023-11-18T09:05:03.615Z,1.35
2023-11-18T09:10:05.451Z,1.64
2023-11-18T09:15:07.119Z,1.86
2023-11-18T09:20:09.359Z,2.24
2023-11-18T09:25:10.893Z,2.48
2023-11-18T09:30:12.675Z,2.40
2023-11-18T09:35:15.073Z,2.58
2023-11-18T09:40:17.748Z,2.85
2023-11-18T09:45:19.225Z,2.80
2023-11-18T09:50:29.082Z,3.06
2023-11-18T09:55:43.806Z,3.30
2023-11-18T10:00:49.678Z,3.46
2023-11-18T10:05:52.988Z,3.56
2023-11-18T10:10:54.494Z,3.74
2023-11-18T10:15:55.938Z,4.00
2023-11-18T10:20:57.434Z,4.17
2023-11-18T10:25:59.646Z,4.42
2023-11-18T10:31:03.509Z,4.51
2023-11-18T10:36:06.676Z,4.58
2023-11-18T10:41:08.157Z,4.71
2023-11-18T10:46:11.099Z,4.88
2023-11-18T10:51:16.829Z,5.05
2023-11-18T10:56:18.746Z,4.91
2023-11-18T11:01:28.958Z,4.78
2023-11-18T11:06:31.032Z,4.81
2023-11-18T11:11:41.107Z,4.68
2023-11-18T11:16:45.992Z,4.53
2023-11-18T11:21:53.164Z,4.56
2023-11-18T11:27:05.830Z,4.69
2023-11-18T11:32:10.340Z,4.91
2023-11-18T11:37:12.453Z,4.99
2023-11-18T11:42:15.862Z,4.87
2023-11-18T11:47:18.267Z,4.85
2023-11-18T11:52:28.922Z,4.74
2023-11-18T11:57:33.810Z,4.73
2023-11-18T12:02:36.400Z,4.72
2023-11-18T12:07:41.072Z,4.81
2023-11-18T12:12:42.582Z,4.76
2023-11-18T12:17:53.022Z,4.75
2023-11-18T12:23:04.935Z,4.76
2023-11-18T12:28:10.667Z,4.73
2023-11-18T12:33:12.187Z,4.74
2023-11-18T12:39:02.206Z,4.63
2023-11-18T12:44:15.503Z,4.48
2023-11-18T12:49:18.215Z,4.38
2023-11-18T12:54:25.353Z,4.36
2023-11-18T12:59:26.884Z,4.30
2023-11-18T13:04:28.871Z,4.29
2023-11-18T13:09:30.601Z,4.30
2023-11-18T13:14:33.725Z,4.29
2023-11-18T13:19:36.022Z,4.30
2023-11-18T13:24:41.123Z,4.30
2023-11-18T13:29:49.397Z,4.29
2023-11-18T13:34:51.026Z,4.30
2023-11-18T13:39:58.590Z,4.27
2023-11-18T13:45:01.294Z,4.24
2023-11-18T13:50:07.918Z,4.20
2023-11-18T13:55:09.481Z,4.16
2023-11-18T14:00:12.015Z,4.12
2023-11-18T14:05:17.427Z,4.11
2023-11-18T14:10:19.252Z,4.06
2023-11-18T14:15:20.744Z,4.06
2023-11-18T14:20:22.260Z,4.02
2023-11-18T14:25:24.105Z,4.00
2023-11-18T14:30:25.607Z,3.97
2023-11-18T14:35:30.097Z,3.96
2023-11-18T14:40:31.976Z,3.90
2023-11-18T14:45:33.444Z,3.83
2023-11-18T14:50:34.930Z,3.81
2023-11-18T14:55:36.412Z,3.81
2023-11-18T15:00:37.887Z,3.83
2023-11-18T15:05:39.524Z,3.84
2023-11-18T15:10:41.376Z,3.85
2023-11-18T15:15:42.967Z,3.84
2023-11-18T15:20:47.987Z,3.82
2023-11-18T15:25:50.199Z,3.81
2023-11-18T15:30:51.823Z,3.83
2023-11-18T15:35:53.398Z,3.82
2023-11-18T15:40:55.112Z,3.83
2023-11-18T15:45:56.616Z,3.83
2023-11-18T15:51:00.631Z,3.80
2023-11-18T15:56:02.528Z,3.80
2023-11-18T16:01:04.514Z,3.80
2023-11-18T16:06:06.681Z,3.79
2023-11-18T16:11:08.201Z,3.81
2023-11-18T16:16:09.814Z,3.81
2023-11-18T16:21:11.285Z,3.76
2023-11-18T16:26:12.791Z,3.72
2023-11-18T16:31:14.330Z,3.71
2023-11-18T16:36:21.596Z,3.68
2023-11-18T16:41:24.112Z,3.68
2023-11-18T16:46:25.704Z,3.70
2023-11-18T16:51:27.224Z,3.71
2023-11-18T16:56:29.573Z,3.72
2023-11-18T17:01:31.053Z,3.68
2023-11-18T17:06:32.509Z,3.67
2023-11-18T17:11:33.991Z,3.67
2023-11-18T17:16:35.501Z,3.65
2023-11-18T17:21:37.058Z,3.64
2023-11-18T17:26:38.575Z,3.63
2023-11-18T17:31:40.521Z,3.64
2023-11-18T17:36:41.991Z,3.64
2023-11-18T17:41:43.451Z,3.64
2023-11-18T17:46:44.943Z,3.64
2023-11-18T17:51:46.442Z,3.64
2023-11-18T17:56:48.014Z,3.65
2023-11-18T18:01:49.808Z,3.66
2023-11-18T18:06:51.429Z,3.65
2023-11-18T18:11:52.918Z,3.65
2023-11-18T18:16:54.399Z,3.64
2023-11-18T18:21:55.905Z,3.62
2023-11-18T18:26:57.398Z,3.61
2023-11-18T18:31:58.928Z,3.60
2023-11-18T18:37:00.429Z,3.59
2023-11-18T18:42:01.886Z,3.56
2023-11-18T18:47:03.628Z,3.55
2023-11-18T18:52:05.179Z,3.54
2023-11-18T18:57:06.991Z,3.52
2023-11-18T19:02:08.555Z,3.50
2023-11-18T19:07:10.066Z,3.53
2023-11-18T19:12:11.549Z,3.54
2023-11-18T19:17:13.059Z,3.55
2023-11-18T19:22:14.540Z,3.54
2023-11-18T19:27:15.979Z,3.56
2023-11-18T19:32:17.462Z,3.53
2023-11-18T19:37:18.981Z,3.53
2023-11-18T19:42:20.448Z,3.49
2023-11-18T19:47:21.975Z,3.50
2023-11-18T19:52:23.475Z,3.50
2023-11-18T19:57:25.046Z,3.50
2023-11-18T20:02:26.605Z,3.49
2023-11-18T20:07:28.164Z,3.51
2023-11-18T20:12:31.645Z,3.52
2023-11-18T20:17:34.888Z,3.55
2023-11-18T20:22:36.551Z,3.61
2023-11-18T20:27:38.081Z,3.64
2023-11-18T20:32:39.646Z,3.68
2023-11-18T20:37:41.213Z,3.69
2023-11-18T20:42:42.647Z,3.70
2023-11-18T20:47:45.542Z,3.72
2023-11-18T20:52:47.201Z,3.71
2023-11-18T20:57:48.696Z,3.74
2023-11-18T21:02:50.444Z,3.74
2023-11-18T21:07:52.084Z,3.75
2023-11-18T21:12:53.573Z,3.77
2023-11-18T21:17:55.192Z,3.79
2023-11-18T21:22:56.951Z,3.80
2023-11-18T21:28:04.235Z,3.81
2023-11-18T21:33:06.198Z,3.84
2023-11-18T21:38:07.720Z,3.85
2023-11-18T21:43:09.318Z,3.87
2023-11-18T21:48:10.800Z,3.89
2023-11-18T21:53:12.372Z,3.89
2023-11-18T21:58:13.894Z,3.89
2023-11-18T22:03:15.543Z,3.91
2023-11-18T22:08:17.198Z,3.91
2023-11-18T22:13:18.720Z,3.91
2023-11-18T22:18:20.243Z,3.91
2023-11-18T22:23:21.727Z,3.91
2023-11-18T22:28:23.245Z,3.91
2023-11-18T22:33:25.644Z,3.91
2023-11-18T22:38:27.557Z,3.90
2023-11-18T22:43:29.130Z,3.89
2023-11-18T22:48:30.580Z,3.90
2023-11-18T22:53:32.318Z,3.90
2023-11-18T22:58:33.772Z,3.91
2023-11-18T23:03:35.319Z,3.88
2023-11-18T23:08:38.136Z,3.86
2023-11-18T23:13:39.830Z,3.84
2023-11-18T23:18:44.216Z,3.84
2023-11-18T23:23:45.752Z,3.81
2023-11-18T23:28:47.233Z,3.81
2023-11-18T23:33:48.716Z,3.79
2023-11-18T23:38:50.171Z,3.79
2023-11-18T23:43:51.704Z,3.78
2023-11-18T23:48:53.774Z,3.79
2023-11-18T23:53:55.233Z,3.79
2023-11-18T23:58:56.670Z,3.79
